createdAt,value
2017-08-26T00:01:02.780Z,11.80
2017-08-26T00:03:30.288Z,12.00
2017-08-26T00:05:57.775Z,11.97
2017-08-26T00:08:25.281Z,12.67
2017-08-26T00:10:52.760Z,12.37
2017-08-26T00:13:20.268Z,12.00
2017-08-26T00:15:47.749Z,14.10
2017-08-26T00:18:15.251Z,13.27
2017-08-26T00:20:42.749Z,14.30
2017-08-26T00:23:10.251Z,13.73
2017-08-26T00:25:37.730Z,15.33
2017-08-26T00:28:05.231Z,14.50
2017-08-26T00:30:32.716Z,14.73
2017-08-26T00:33:00.227Z,14.43
2017-08-26T00:35:27.721Z,15.20
2017-08-26T00:37:55.225Z,15.83
2017-08-26T00:40:22.722Z,15.17
2017-08-26T00:42:50.215Z,15.70
2017-08-26T00:45:17.700Z,14.80
2017-08-26T00:47:45.199Z,15.17
2017-08-26T00:50:12.688Z,14.63
2017-08-26T00:52:40.188Z,13.60
2017-08-26T00:55:07.668Z,14.10
2017-08-26T00:57:35.148Z,14.30
2017-08-26T01:00:02.662Z,16.10
2017-08-26T01:02:30.144Z,15.40
2017-08-26T01:04:57.651Z,14.60
2017-08-26T01:07:30.879Z,14.77
2017-08-26T01:09:59.140Z,14.93
2017-08-26T01:12:27.390Z,15.43
2017-08-26T01:14:54.891Z,14.30
2017-08-26T01:17:22.368Z,14.80
2017-08-26T01:19:49.879Z,13.43
2017-08-26T01:22:17.368Z,13.27
2017-08-26T01:24:44.872Z,15.00
2017-08-26T01:27:12.360Z,13.60
2017-08-26T01:29:39.865Z,14.00
2017-08-26T01:32:07.343Z,13.40
2017-08-26T01:34:34.852Z,14.43
2017-08-26T01:37:02.332Z,14.33
2017-08-26T01:39:29.836Z,14.10
2017-08-26T01:41:57.320Z,13.40
2017-08-26T01:44:24.824Z,13.20
2017-08-26T01:46:52.312Z,13.20
2017-08-26T01:49:19.812Z,11.63
2017-08-26T01:51:47.292Z,12.77
2017-08-26T01:54:14.804Z,12.03
2017-08-26T01:56:42.288Z,12.60
2017-08-26T01:59:09.808Z,11.70
2017-08-26T02:01:37.283Z,11.20
2017-08-26T02:04:04.764Z,11.00
2017-08-26T02:06:32.264Z,10.10
2017-08-26T02:08:59.743Z,11.00
2017-08-26T02:11:27.240Z,10.80
2017-08-26T02:13:54.715Z,9.47
2017-08-26T02:16:22.211Z,9.73
2017-08-26T02:18:49.684Z,9.63
2017-08-26T02:21:17.179Z,9.57
2017-08-26T02:23:44.664Z,10.37
2017-08-26T02:26:12.160Z,9.73
2017-08-26T02:28:39.636Z,9.50
2017-08-26T02:31:07.132Z,9.00
2017-08-26T02:33:34.603Z,8.30
2017-08-26T02:36:02.095Z,8.03
2017-08-26T02:38:29.571Z,8.83
2017-08-26T02:40:57.067Z,8.93
2017-08-26T02:43:24.550Z,8.90
2017-08-26T02:45:52.049Z,8.60
2017-08-26T02:48:19.524Z,8.77
2017-08-26T02:50:47.015Z,8.30
2017-08-26T02:53:14.496Z,8.60
2017-08-26T02:55:41.996Z,7.23
2017-08-26T02:58:09.488Z,8.30
2017-08-26T03:00:36.968Z,8.40
2017-08-26T03:03:04.475Z,9.53
2017-08-26T03:05:31.952Z,9.00
2017-08-26T03:07:59.457Z,8.33
2017-08-26T03:10:26.932Z,7.90
2017-08-26T03:12:54.432Z,8.27
2017-08-26T03:15:21.903Z,7.93
2017-08-26T03:17:49.397Z,8.20
2017-08-26T03:20:16.879Z,8.50
2017-08-26T03:22:44.377Z,8.37
2017-08-26T03:25:11.859Z,8.10
2017-08-26T03:27:40.164Z,8.27
2017-08-26T03:30:07.640Z,8.40
2017-08-26T03:32:35.151Z,8.87
2017-08-26T03:35:02.638Z,8.57
2017-08-26T03:37:30.144Z,9.03
2017-08-26T03:39:57.627Z,9.47
2017-08-26T03:42:25.127Z,9.40
2017-08-26T03:44:52.599Z,8.97
2017-08-26T03:47:20.099Z,9.37
2017-08-26T03:49:47.580Z,8.20
2017-08-26T03:52:15.075Z,8.30
2017-08-26T03:54:42.560Z,9.40
2017-08-26T03:57:10.066Z,9.30
2017-08-26T03:59:37.554Z,9.00
2017-08-26T04:02:05.035Z,9.73
2017-08-26T04:04:32.531Z,9.90
2017-08-26T04:07:00.008Z,8.50
2017-08-26T04:09:28.286Z,9.67
2017-08-26T04:11:55.767Z,9.60
2017-08-26T04:14:23.275Z,9.30
2017-08-26T04:16:50.756Z,9.30
2017-08-26T04:19:18.259Z,10.03
2017-08-26T04:21:45.745Z,8.93
2017-08-26T04:24:13.241Z,8.60
2017-08-26T04:26:40.715Z,9.23
2017-08-26T04:29:08.216Z,9.07
2017-08-26T04:31:35.704Z,8.93
2017-08-26T04:34:03.202Z,8.27
2017-08-26T04:36:30.675Z,9.37
2017-08-26T04:38:58.172Z,8.43
2017-08-26T04:41:25.647Z,9.40
2017-08-26T04:43:53.147Z,9.67
2017-08-26T04:46:20.635Z,10.27
2017-08-26T04:48:48.140Z,11.30
2017-08-26T04:51:15.615Z,10.07
2017-08-26T04:53:43.127Z,10.77
2017-08-26T04:56:10.608Z,13.10
2017-08-26T04:58:38.124Z,14.30
2017-08-26T05:01:05.612Z,13.67
2017-08-26T05:03:33.093Z,13.23
2017-08-26T05:06:00.604Z,13.70
2017-08-26T05:08:28.091Z,11.77
2017-08-26T05:10:55.592Z,12.80
2017-08-26T05:13:23.080Z,13.47
2017-08-26T05:15:50.581Z,12.33
2017-08-26T05:18:18.059Z,12.70
2017-08-26T05:20:45.570Z,11.73
2017-08-26T05:23:13.051Z,12.23
2017-08-26T05:25:40.551Z,10.90
2017-08-26T05:28:08.032Z,11.90
2017-08-26T05:30:35.537Z,10.10
2017-08-26T05:33:03.024Z,10.43
2017-08-26T05:35:30.524Z,11.27
2017-08-26T05:37:58.009Z,11.27
2017-08-26T05:40:25.575Z,10.80
2017-08-26T05:42:53.059Z,10.60
2017-08-26T05:45:20.556Z,10.83
2017-08-26T05:47:48.044Z,11.10
2017-08-26T05:50:15.547Z,10.50
2017-08-26T05:52:43.023Z,11.90
2017-08-26T05:55:10.519Z,10.43
2017-08-26T05:57:38.014Z,10.67
2017-08-26T06:00:05.541Z,10.53
2017-08-26T06:02:33.023Z,9.50
2017-08-26T06:05:01.277Z,9.40
2017-08-26T06:07:28.775Z,8.77
2017-08-26T06:09:56.259Z,9.40
2017-08-26T06:12:23.757Z,8.50
2017-08-26T06:14:51.228Z,9.07
2017-08-26T06:17:18.741Z,8.00
2017-08-26T06:19:46.215Z,7.83
2017-08-26T06:22:13.718Z,7.67
2017-08-26T06:24:41.203Z,7.50
2017-08-26T06:27:08.700Z,6.80
2017-08-26T06:29:36.175Z,7.23
2017-08-26T06:32:03.663Z,5.97
2017-08-26T06:34:31.140Z,5.90
2017-08-26T06:36:58.635Z,6.10
2017-08-26T06:39:26.113Z,5.47
2017-08-26T06:41:53.604Z,5.60
2017-08-26T06:44:21.087Z,5.60
2017-08-26T06:46:48.591Z,4.83
2017-08-26T06:49:16.067Z,4.73
2017-08-26T06:51:43.559Z,4.60
2017-08-26T06:54:11.032Z,4.90
2017-08-26T06:56:38.544Z,4.70
2017-08-26T06:59:06.023Z,5.50
2017-08-26T07:01:33.504Z,5.87
2017-08-26T07:04:01.004Z,5.00
2017-08-26T07:06:29.243Z,4.43
2017-08-26T07:08:56.742Z,5.67
2017-08-26T07:11:24.219Z,5.43
2017-08-26T07:13:51.712Z,6.40
2017-08-26T07:16:19.195Z,5.73
2017-08-26T07:18:46.688Z,5.77
2017-08-26T07:21:14.159Z,5.90
2017-08-26T07:23:41.663Z,6.10
2017-08-26T07:26:09.150Z,6.27
2017-08-26T07:28:36.639Z,6.03
2017-08-26T07:31:04.879Z,6.80
2017-08-26T07:33:32.382Z,5.67
2017-08-26T07:35:59.857Z,6.40
2017-08-26T07:38:27.352Z,6.10
2017-08-26T07:40:54.833Z,6.37
2017-08-26T07:43:22.331Z,6.83
2017-08-26T07:45:49.804Z,6.50
2017-08-26T07:48:17.308Z,6.60
2017-08-26T07:50:44.792Z,7.53
2017-08-26T07:53:12.292Z,7.53
2017-08-26T07:55:39.768Z,8.10
2017-08-26T07:58:07.259Z,7.00
2017-08-26T08:00:34.736Z,7.10
2017-08-26T08:03:02.227Z,6.87
2017-08-26T08:05:29.725Z,7.97
2017-08-26T08:07:57.203Z,8.53
2017-08-26T08:10:24.704Z,8.47
2017-08-26T08:12:52.179Z,8.50
2017-08-26T08:15:19.685Z,9.30
2017-08-26T08:17:47.186Z,10.47
2017-08-26T08:20:14.695Z,11.70
2017-08-26T08:22:42.232Z,10.80
2017-08-26T08:25:09.731Z,11.03
2017-08-26T08:27:37.224Z,10.27
2017-08-26T08:30:04.729Z,12.87
2017-08-26T08:32:32.215Z,12.60
2017-08-26T08:34:59.724Z,14.87
2017-08-26T08:37:27.208Z,12.23
2017-08-26T08:39:54.707Z,12.90
2017-08-26T08:42:22.193Z,13.17
2017-08-26T08:44:49.703Z,12.97
2017-08-26T08:47:17.195Z,18.57
2017-08-26T08:49:44.706Z,18.27
2017-08-26T08:52:12.183Z,18.70
2017-08-26T08:54:39.693Z,21.90
2017-08-26T08:57:07.176Z,26.87
2017-08-26T08:59:34.679Z,24.27
2017-08-26T09:02:02.159Z,25.63
2017-08-26T09:04:29.672Z,30.77
2017-08-26T09:06:57.155Z,35.63
2017-08-26T09:09:24.676Z,34.00
2017-08-26T09:11:52.167Z,35.67
2017-08-26T09:14:19.656Z,33.07
2017-08-26T09:16:47.244Z,34.00
2017-08-26T09:19:14.797Z,33.90
2017-08-26T09:21:42.443Z,35.47
2017-08-26T09:24:10.094Z,32.90
2017-08-26T09:26:37.632Z,35.57
2017-08-26T09:29:05.144Z,32.80
2017-08-26T09:31:32.652Z,31.47
2017-08-26T09:34:00.136Z,32.07
2017-08-26T09:36:27.643Z,37.17
2017-08-26T09:38:55.129Z,41.50
2017-08-26T09:41:22.627Z,35.57
2017-08-26T09:43:50.121Z,34.83
2017-08-26T09:46:17.628Z,37.50
2017-08-26T09:48:45.112Z,36.30
2017-08-26T09:51:12.617Z,35.20
2017-08-26T09:53:40.156Z,35.33
2017-08-26T09:56:07.659Z,34.00
2017-08-26T09:58:35.200Z,30.87
2017-08-26T10:01:02.707Z,34.80
2017-08-26T10:03:30.195Z,32.37
2017-08-26T10:05:57.683Z,33.47
2017-08-26T10:08:25.951Z,33.27
2017-08-26T10:10:53.443Z,33.50
2017-08-26T10:13:20.943Z,31.50
2017-08-26T10:15:48.425Z,31.20
2017-08-26T10:18:15.928Z,30.67
2017-08-26T10:20:43.411Z,31.50
2017-08-26T10:23:10.925Z,28.73
2017-08-26T10:25:38.405Z,29.03
2017-08-26T10:28:05.904Z,27.00
2017-08-26T10:30:33.397Z,27.13
2017-08-26T10:33:00.911Z,27.63
2017-08-26T10:35:28.396Z,24.93
2017-08-26T10:37:55.904Z,26.50
2017-08-26T10:40:23.383Z,26.50
2017-08-26T10:42:50.888Z,23.30
2017-08-26T10:45:18.368Z,26.03
2017-08-26T10:47:45.872Z,26.43
2017-08-26T10:50:13.377Z,22.90
2017-08-26T10:52:40.885Z,21.33
2017-08-26T10:55:08.368Z,22.30
2017-08-26T10:57:35.877Z,22.50
2017-08-26T11:00:03.364Z,22.40
2017-08-26T11:02:30.868Z,28.07
2017-08-26T11:04:58.362Z,26.83
2017-08-26T11:07:25.844Z,25.10
2017-08-26T11:09:53.345Z,29.20
2017-08-26T11:12:20.842Z,25.40
2017-08-26T11:14:48.341Z,23.10
2017-08-26T11:17:15.824Z,22.40
2017-08-26T11:19:43.348Z,22.90
2017-08-26T11:22:10.853Z,23.30
2017-08-26T11:24:38.357Z,22.40
2017-08-26T11:27:05.843Z,19.73
2017-08-26T11:29:33.340Z,25.20
2017-08-26T11:32:00.817Z,72.67
2017-08-26T11:34:28.311Z,23.83
2017-08-26T11:36:55.791Z,22.20
2017-08-26T11:39:23.300Z,24.17
2017-08-26T11:41:50.796Z,22.40
2017-08-26T11:44:18.307Z,19.63
2017-08-26T11:46:45.795Z,22.77
2017-08-26T11:49:13.308Z,21.40
2017-08-26T11:51:40.791Z,20.77
2017-08-26T11:54:08.297Z,19.60
2017-08-26T11:56:35.857Z,19.80
2017-08-26T11:59:03.359Z,21.50
2017-08-26T12:01:30.852Z,19.33
2017-08-26T12:03:58.340Z,20.57
2017-08-26T12:06:25.843Z,20.30
2017-08-26T12:08:53.364Z,18.53
2017-08-26T12:11:20.876Z,19.17
2017-08-26T12:13:48.639Z,15.63
2017-08-26T12:16:16.148Z,21.40
2017-08-26T12:18:43.664Z,19.00
2017-08-26T12:21:11.164Z,15.87
2017-08-26T12:23:38.648Z,17.17
2017-08-26T12:26:06.148Z,17.60
2017-08-26T12:28:33.634Z,18.33
2017-08-26T12:31:01.139Z,16.37
2017-08-26T12:33:28.621Z,15.67
2017-08-26T12:35:56.132Z,17.50
2017-08-26T12:38:23.611Z,15.53
2017-08-26T12:40:51.116Z,15.93
2017-08-26T12:43:18.592Z,15.53
2017-08-26T12:45:46.101Z,17.33
2017-08-26T12:48:13.587Z,15.20
2017-08-26T12:50:41.083Z,16.60
2017-08-26T12:53:08.568Z,15.80
2017-08-26T12:55:36.068Z,15.10
2017-08-26T12:58:03.557Z,15.80
2017-08-26T13:00:31.072Z,15.30
2017-08-26T13:02:58.568Z,15.43
2017-08-26T13:05:26.066Z,15.27
2017-08-26T13:07:53.579Z,13.80
2017-08-26T13:10:21.134Z,12.83
2017-08-26T13:12:48.640Z,12.20
2017-08-26T13:15:16.139Z,12.03
2017-08-26T13:17:43.657Z,12.63
2017-08-26T13:20:11.146Z,12.37
2017-08-26T13:22:38.648Z,12.10
2017-08-26T13:25:06.131Z,12.60
2017-08-26T13:27:33.639Z,12.00
2017-08-26T13:30:01.123Z,12.40
2017-08-26T13:32:28.632Z,12.10
2017-08-26T13:34:56.125Z,12.60
2017-08-26T13:37:23.628Z,12.47
2017-08-26T13:39:51.116Z,12.10
2017-08-26T13:42:18.624Z,11.37
2017-08-26T13:44:46.108Z,12.40
2017-08-26T13:47:13.611Z,12.40
2017-08-26T13:49:41.105Z,12.43
2017-08-26T13:52:08.620Z,12.00
2017-08-26T13:54:36.100Z,12.37
2017-08-26T13:57:03.600Z,13.20
2017-08-26T13:59:31.095Z,11.57
2017-08-26T14:01:58.620Z,14.47
2017-08-26T14:04:26.108Z,17.97
2017-08-26T14:06:53.604Z,11.90
2017-08-26T14:09:21.111Z,11.73
2017-08-26T14:11:48.596Z,12.37
2017-08-26T14:14:16.100Z,13.40
2017-08-26T14:16:43.603Z,11.30
2017-08-26T14:19:11.105Z,12.80
2017-08-26T14:21:38.597Z,21.10
2017-08-26T14:24:06.113Z,15.23
2017-08-26T14:26:33.600Z,14.57
2017-08-26T14:29:01.101Z,13.67
2017-08-26T14:31:28.596Z,14.10
2017-08-26T14:33:56.104Z,13.00
2017-08-26T14:36:23.599Z,12.13
2017-08-26T14:38:51.112Z,12.40
2017-08-26T14:41:18.592Z,15.00
2017-08-26T14:43:46.096Z,14.20
2017-08-26T14:46:13.581Z,13.50
2017-08-26T14:48:41.092Z,18.70
2017-08-26T14:51:08.584Z,13.93
2017-08-26T14:53:36.096Z,12.67
2017-08-26T14:56:03.578Z,12.70
2017-08-26T14:58:31.084Z,12.17
2017-08-26T15:00:58.576Z,12.43
2017-08-26T15:03:26.091Z,12.40
2017-08-26T15:05:53.584Z,13.50
2017-08-26T15:08:21.092Z,12.97
2017-08-26T15:10:48.584Z,15.20
2017-08-26T15:13:16.074Z,19.63
2017-08-26T15:15:43.581Z,15.13
2017-08-26T15:18:11.067Z,13.10
2017-08-26T15:20:38.572Z,13.83
2017-08-26T15:23:06.061Z,14.77
2017-08-26T15:25:33.569Z,13.63
2017-08-26T15:28:01.048Z,13.60
2017-08-26T15:30:28.556Z,13.83
2017-08-26T15:32:56.036Z,13.60
2017-08-26T15:35:23.540Z,12.10
2017-08-26T15:37:51.023Z,13.17
2017-08-26T15:40:18.531Z,12.93
2017-08-26T15:42:46.020Z,13.30
2017-08-26T15:45:13.525Z,13.60
2017-08-26T15:47:41.003Z,13.73
2017-08-26T15:50:08.516Z,12.13
2017-08-26T15:52:35.996Z,13.13
2017-08-26T15:55:03.500Z,14.90
2017-08-26T15:57:30.978Z,14.20
2017-08-26T15:59:58.484Z,15.23
2017-08-26T16:02:25.963Z,13.40
2017-08-26T16:04:53.447Z,14.47
2017-08-26T16:07:21.093Z,13.10
2017-08-26T16:09:48.595Z,13.47
2017-08-26T16:12:16.104Z,13.80
2017-08-26T16:14:43.584Z,15.20
2017-08-26T16:17:11.089Z,13.83
2017-08-26T16:19:38.572Z,13.20
2017-08-26T16:22:06.079Z,13.33
2017-08-26T16:24:33.563Z,14.77
2017-08-26T16:27:01.072Z,13.30
2017-08-26T16:29:28.560Z,13.30
2017-08-26T16:31:56.063Z,13.33
2017-08-26T16:34:23.554Z,12.10
2017-08-26T16:36:51.055Z,12.50
2017-08-26T16:39:18.533Z,13.20
2017-08-26T16:41:46.061Z,13.30
2017-08-26T16:44:13.543Z,12.43
2017-08-26T16:46:41.048Z,13.43
2017-08-26T16:49:08.540Z,13.77
2017-08-26T16:51:36.040Z,12.73
2017-08-26T16:54:03.532Z,13.50
2017-08-26T16:56:31.032Z,13.50
2017-08-26T16:58:58.520Z,13.10
2017-08-26T17:01:26.037Z,14.67
2017-08-26T17:03:53.515Z,13.87
2017-08-26T17:06:20.996Z,12.90
2017-08-26T17:08:48.507Z,13.50
2017-08-26T17:11:15.996Z,12.10
2017-08-26T17:13:43.495Z,14.00
2017-08-26T17:16:10.980Z,12.50
2017-08-26T17:18:38.496Z,12.90
2017-08-26T17:21:05.979Z,13.30
2017-08-26T17:23:33.479Z,13.67
2017-08-26T17:26:00.960Z,16.20
2017-08-26T17:28:28.468Z,13.40
2017-08-26T17:30:55.965Z,14.03
2017-08-26T17:33:23.465Z,13.47
2017-08-26T17:35:50.947Z,13.30
2017-08-26T17:38:18.464Z,12.13
2017-08-26T17:40:45.960Z,12.83
2017-08-26T17:43:13.460Z,14.07
2017-08-26T17:45:40.955Z,14.13
2017-08-26T17:48:08.456Z,13.70
2017-08-26T17:50:35.935Z,15.50
2017-08-26T17:53:03.441Z,14.83
2017-08-26T17:55:30.927Z,15.27
2017-08-26T17:57:58.432Z,14.50
2017-08-26T18:00:25.916Z,14.63
2017-08-26T18:02:53.420Z,16.03
2017-08-26T18:05:20.904Z,15.40
2017-08-26T18:07:48.383Z,14.70
2017-08-26T18:10:15.888Z,14.97
2017-08-26T18:12:43.372Z,14.83
2017-08-26T18:15:10.868Z,15.70
2017-08-26T18:17:38.381Z,15.20
2017-08-26T18:20:05.883Z,14.53
2017-08-26T18:22:33.367Z,17.07
2017-08-26T18:25:00.879Z,15.80
2017-08-26T18:27:28.360Z,16.70
2017-08-26T18:29:55.864Z,22.50
2017-08-26T18:32:23.359Z,20.53
2017-08-26T18:34:50.860Z,22.03
2017-08-26T18:37:18.344Z,19.33
2017-08-26T18:39:45.849Z,21.63
2017-08-26T18:42:13.323Z,20.17
2017-08-26T18:44:40.827Z,20.83
2017-08-26T18:47:08.316Z,21.77
2017-08-26T18:49:35.818Z,22.03
2017-08-26T18:52:03.305Z,19.80
2017-08-26T18:54:30.807Z,22.70
2017-08-26T18:56:58.297Z,21.10
2017-08-26T18:59:25.799Z,18.97
2017-08-26T19:01:53.288Z,19.50
2017-08-26T19:04:20.791Z,20.53
2017-08-26T19:06:48.287Z,39.10
2017-08-26T19:09:15.763Z,38.07
2017-08-26T19:11:43.256Z,42.87
2017-08-26T19:14:10.736Z,22.00
2017-08-26T19:16:38.243Z,19.50
2017-08-26T19:19:05.733Z,18.77
2017-08-26T19:21:33.238Z,18.47
2017-08-26T19:24:00.727Z,19.00
2017-08-26T19:26:28.228Z,17.20
2017-08-26T19:28:55.713Z,18.03
2017-08-26T19:31:23.212Z,19.13
2017-08-26T19:33:50.703Z,20.20
2017-08-26T19:36:18.204Z,20.60
2017-08-26T19:38:45.680Z,19.40
2017-08-26T19:41:13.179Z,18.50
2017-08-26T19:43:40.664Z,19.80
2017-08-26T19:46:08.172Z,19.33
2017-08-26T19:48:35.652Z,18.23
2017-08-26T19:51:03.160Z,18.30
2017-08-26T19:53:30.644Z,18.03
2017-08-26T19:55:58.236Z,16.60
2017-08-26T19:58:25.731Z,17.80
2017-08-26T20:00:53.231Z,36.40
2017-08-26T20:03:20.707Z,56.43
2017-08-26T20:05:48.216Z,46.13
2017-08-26T20:08:15.703Z,24.80
2017-08-26T20:10:43.187Z,18.50
2017-08-26T20:13:10.683Z,19.07
2017-08-26T20:15:38.169Z,16.97
2017-08-26T20:18:05.672Z,17.10
2017-08-26T20:20:33.151Z,18.43
2017-08-26T20:23:00.661Z,18.70
2017-08-26T20:25:28.153Z,18.67
2017-08-26T20:27:55.650Z,18.73
2017-08-26T20:30:23.132Z,19.00
2017-08-26T20:32:50.631Z,17.60
2017-08-26T20:35:18.116Z,18.10
2017-08-26T20:37:45.611Z,18.20
2017-08-26T20:40:13.112Z,19.20
2017-08-26T20:42:40.616Z,18.43
2017-08-26T20:45:08.095Z,18.73
2017-08-26T20:47:35.596Z,18.03
2017-08-26T20:50:03.088Z,17.80
2017-08-26T20:52:30.588Z,18.43
2017-08-26T20:54:58.064Z,18.70
2017-08-26T20:57:25.568Z,20.17
2017-08-26T20:59:53.060Z,28.80
2017-08-26T21:02:20.569Z,22.40
2017-08-26T21:04:48.056Z,33.50
2017-08-26T21:07:15.544Z,22.67
2017-08-26T21:09:43.045Z,17.93
2017-08-26T21:12:10.523Z,18.20
2017-08-26T21:14:38.023Z,18.40
2017-08-26T21:17:05.500Z,18.73
2017-08-26T21:19:33.000Z,19.37
2017-08-26T21:22:00.509Z,19.87
2017-08-26T21:24:28.008Z,18.83
2017-08-26T21:26:55.491Z,20.37
2017-08-26T21:29:22.996Z,19.90
2017-08-26T21:31:50.487Z,47.40
2017-08-26T21:34:17.988Z,35.17
2017-08-26T21:36:45.484Z,25.93
2017-08-26T21:39:13.163Z,23.13
2017-08-26T21:41:40.648Z,18.17
2017-08-26T21:44:08.147Z,20.23
2017-08-26T21:46:35.632Z,19.50
2017-08-26T21:49:03.140Z,18.50
2017-08-26T21:51:30.648Z,19.07
2017-08-26T21:53:58.155Z,18.07
2017-08-26T21:56:25.650Z,17.83
2017-08-26T21:58:53.161Z,18.70
2017-08-26T22:01:20.643Z,18.30
2017-08-26T22:03:48.141Z,18.27
2017-08-26T22:06:15.628Z,17.57
2017-08-26T22:08:43.196Z,17.20
2017-08-26T22:11:10.703Z,17.17
2017-08-26T22:13:38.187Z,17.37
2017-08-26T22:16:05.687Z,16.90
2017-08-26T22:18:33.176Z,19.47
2017-08-26T22:21:00.684Z,18.30
2017-08-26T22:23:28.176Z,18.43
2017-08-26T22:25:55.676Z,49.90
2017-08-26T22:28:23.160Z,41.73
2017-08-26T22:30:50.675Z,20.40
2017-08-26T22:33:18.163Z,18.17
2017-08-26T22:35:45.663Z,17.80
2017-08-26T22:38:13.145Z,18.60
2017-08-26T22:40:40.644Z,17.20
2017-08-26T22:43:08.136Z,18.10
2017-08-26T22:45:35.640Z,17.83
2017-08-26T22:48:03.121Z,18.73
2017-08-26T22:50:30.623Z,18.90
2017-08-26T22:52:58.117Z,18.10
2017-08-26T22:55:25.621Z,17.63
2017-08-26T22:57:53.109Z,17.50
2017-08-26T23:00:20.619Z,17.90
2017-08-26T23:02:48.100Z,16.87
2017-08-26T23:05:15.608Z,17.97
2017-08-26T23:07:43.091Z,18.63
2017-08-26T23:10:11.424Z,18.13
2017-08-26T23:12:38.928Z,18.20
2017-08-26T23:15:06.419Z,17.73
2017-08-26T23:17:33.936Z,18.83
2017-08-26T23:20:01.419Z,18.13
2017-08-26T23:22:28.928Z,17.70
2017-08-26T23:24:56.415Z,18.10
2017-08-26T23:27:24.683Z,18.50
2017-08-26T23:29:52.167Z,18.90
2017-08-26T23:32:19.681Z,17.37
2017-08-26T23:34:47.171Z,16.93
2017-08-26T23:37:14.675Z,18.53
2017-08-26T23:39:42.158Z,18.40
2017-08-26T23:42:09.663Z,17.80
2017-08-26T23:44:37.155Z,18.90
2017-08-26T23:47:04.664Z,17.23
2017-08-26T23:49:32.146Z,17.87
2017-08-26T23:51:59.655Z,18.50
2017-08-26T23:54:27.148Z,18.33
2017-08-26T23:56:54.652Z,17.43
2017-08-26T23:59:22.132Z,20.23
